sensor_id;sensor_type;location;lat;lon;timestamp;P1;durP1;ratioP1;P2;durP2;ratioP2
28459;SDS011;32528;45.712;9.192;2023-11-21T00:00:36;48.10;;;26.33;;
28459;SDS011;32528;45.712;9.192;2023-11-21T00:02:37;45.13;;;26.88;;
28459;SDS011;32528;45.712;9.192;2023-11-21T00:04:40;41.00;;;28.50;;
28459;SDS011;32528;45.712;9.192;2023-11-21T00:06:40;38.58;;;26.58;;
28459;SDS011;32528;45.712;9.192;2023-11-21T00:08:41;40.65;;;25.85;;
28459;SDS011;32528;45.712;9.192;2023-11-21T00:10:42;40.90;;;27.05;;
28459;SDS011;32528;45.712;9.192;2023-11-21T00:12:43;42.65;;;27.55;;
28459;SDS011;32528;45.712;9.192;2023-11-21T00:14:43;45.45;;;26.75;;
28459;SDS011;32528;45.712;9.192;2023-11-21T00:16:44;38.70;;;26.30;;
28459;SDS011;32528;45.712;9.192;2023-11-21T00:18:45;40.10;;;26.55;;
28459;SDS011;32528;45.712;9.192;2023-11-21T00:20:46;41.55;;;28.02;;
28459;SDS011;32528;45.712;9.192;2023-11-21T00:22:47;41.78;;;27.48;;
28459;SDS011;32528;45.712;9.192;2023-11-21T00:24:48;39.80;;;27.55;;
28459;SDS011;32528;45.712;9.192;2023-11-21T00:26:48;40.65;;;27.52;;
28459;SDS011;32528;45.712;9.192;2023-11-21T00:28:50;42.75;;;28.30;;
28459;SDS011;32528;45.712;9.192;2023-11-21T00:30:51;38.47;;;27.35;;
28459;SDS011;32528;45.712;9.192;2023-11-21T00:32:51;44.60;;;28.42;;
28459;SDS011;32528;45.712;9.192;2023-11-21T00:34:53;36.13;;;26.27;;
28459;SDS011;32528;45.712;9.192;2023-11-21T00:36:55;40.03;;;27.27;;
28459;SDS011;32528;45.712;9.192;2023-11-21T00:38:56;39.53;;;27.90;;
28459;SDS011;32528;45.712;9.192;2023-11-21T00:40:57;41.15;;;26.95;;
28459;SDS011;32528;45.712;9.192;2023-11-21T00:42:58;40.97;;;28.23;;
28459;SDS011;32528;45.712;9.192;2023-11-21T00:44:58;46.55;;;28.08;;
28459;SDS011;32528;45.712;9.192;2023-11-21T00:47:00;43.70;;;28.90;;
28459;SDS011;32528;45.712;9.192;2023-11-21T00:49:00;37.53;;;26.20;;
28459;SDS011;32528;45.712;9.192;2023-11-21T00:51:01;35.72;;;24.45;;
28459;SDS011;32528;45.712;9.192;2023-11-21T00:53:02;46.42;;;27.00;;
28459;SDS011;32528;45.712;9.192;2023-11-21T00:55:03;45.38;;;27.13;;
28459;SDS011;32528;45.712;9.192;2023-11-21T00:57:07;37.72;;;26.45;;
28459;SDS011;32528;45.712;9.192;2023-11-21T00:59:08;48.78;;;28.63;;
28459;SDS011;32528;45.712;9.192;2023-11-21T01:01:09;50.83;;;26.83;;
28459;SDS011;32528;45.712;9.192;2023-11-21T01:03:10;36.63;;;24.83;;
28459;SDS011;32528;45.712;9.192;2023-11-21T01:05:11;37.83;;;27.23;;
28459;SDS011;32528;45.712;9.192;2023-11-21T01:07:11;46.83;;;26.67;;
28459;SDS011;32528;45.712;9.192;2023-11-21T01:09:13;42.80;;;26.80;;
28459;SDS011;32528;45.712;9.192;2023-11-21T01:11:14;45.22;;;26.75;;
28459;SDS011;32528;45.712;9.192;2023-11-21T01:13:15;43.20;;;26.55;;
28459;SDS011;32528;45.712;9.192;2023-11-21T01:15:15;43.30;;;25.10;;
28459;SDS011;32528;45.712;9.192;2023-11-21T01:17:16;48.92;;;27.02;;
28459;SDS011;32528;45.712;9.192;2023-11-21T01:19:18;47.33;;;28.08;;
28459;SDS011;32528;45.712;9.192;2023-11-21T01:21:19;46.45;;;29.30;;
28459;SDS011;32528;45.712;9.192;2023-11-21T01:23:19;40.92;;;27.60;;
28459;SDS011;32528;45.712;9.192;2023-11-21T01:25:20;47.33;;;27.08;;
28459;SDS011;32528;45.712;9.192;2023-11-21T01:27:23;42.90;;;28.13;;
28459;SDS011;32528;45.712;9.192;2023-11-21T01:29:24;55.70;;;29.85;;
28459;SDS011;32528;45.712;9.192;2023-11-21T01:31:24;45.03;;;29.60;;
28459;SDS011;32528;45.712;9.192;2023-11-21T01:33:29;50.10;;;30.20;;
28459;SDS011;32528;45.712;9.192;2023-11-21T01:35:29;46.90;;;28.85;;
28459;SDS011;32528;45.712;9.192;2023-11-21T01:37:30;42.92;;;28.92;;
28459;SDS011;32528;45.712;9.192;2023-11-21T01:39:31;52.70;;;30.40;;
28459;SDS011;32528;45.712;9.192;2023-11-21T01:41:32;54.22;;;28.95;;
28459;SDS011;32528;45.712;9.192;2023-11-21T01:43:32;45.63;;;28.23;;
28459;SDS011;32528;45.712;9.192;2023-11-21T01:45:34;45.15;;;28.25;;
28459;SDS011;32528;45.712;9.192;2023-11-21T01:47:35;44.42;;;29.17;;
28459;SDS011;32528;45.712;9.192;2023-11-21T01:49:36;46.92;;;29.58;;
28459;SDS011;32528;45.712;9.192;2023-11-21T01:51:38;42.75;;;28.63;;
28459;SDS011;32528;45.712;9.192;2023-11-21T01:53:40;43.10;;;28.48;;
28459;SDS011;32528;45.712;9.192;2023-11-21T01:55:41;44.00;;;29.48;;
28459;SDS011;32528;45.712;9.192;2023-11-21T01:57:44;45.58;;;27.50;;
28459;SDS011;32528;45.712;9.192;2023-11-21T01:59:48;52.47;;;28.90;;
28459;SDS011;32528;45.712;9.192;2023-11-21T02:01:50;42.83;;;27.90;;
28459;SDS011;32528;45.712;9.192;2023-11-21T02:03:50;39.38;;;25.70;;
28459;SDS011;32528;45.712;9.192;2023-11-21T02:05:54;61.67;;;30.92;;
28459;SDS011;32528;45.712;9.192;2023-11-21T02:07:55;48.13;;;27.77;;
28459;SDS011;32528;45.712;9.192;2023-11-21T02:09:56;42.88;;;28.48;;
28459;SDS011;32528;45.712;9.192;2023-11-21T02:11:57;45.97;;;28.58;;
28459;SDS011;32528;45.712;9.192;2023-11-21T02:13:59;43.05;;;26.80;;
28459;SDS011;32528;45.712;9.192;2023-11-21T02:16:01;39.60;;;27.75;;
28459;SDS011;32528;45.712;9.192;2023-11-21T02:18:02;40.28;;;28.23;;
28459;SDS011;32528;45.712;9.192;2023-11-21T02:20:03;49.55;;;29.63;;
28459;SDS011;32528;45.712;9.192;2023-11-21T02:22:06;44.00;;;28.33;;
28459;SDS011;32528;45.712;9.192;2023-11-21T02:24:07;41.50;;;27.73;;
28459;SDS011;32528;45.712;9.192;2023-11-21T02:26:08;39.40;;;27.08;;
28459;SDS011;32528;45.712;9.192;2023-11-21T02:28:10;47.45;;;27.00;;
28459;SDS011;32528;45.712;9.192;2023-11-21T02:30:13;55.55;;;28.67;;
28459;SDS011;32528;45.712;9.192;2023-11-21T02:32:14;48.50;;;28.15;;
28459;SDS011;32528;45.712;9.192;2023-11-21T02:34:17;50.38;;;28.45;;
28459;SDS011;32528;45.712;9.192;2023-11-21T02:36:18;38.53;;;27.17;;
28459;SDS011;32528;45.712;9.192;2023-11-21T02:38:21;45.47;;;27.70;;
28459;SDS011;32528;45.712;9.192;2023-11-21T02:40:22;51.92;;;29.52;;
28459;SDS011;32528;45.712;9.192;2023-11-21T02:42:24;43.67;;;25.15;;
28459;SDS011;32528;45.712;9.192;2023-11-21T02:44:25;42.42;;;26.58;;
28459;SDS011;32528;45.712;9.192;2023-11-21T02:46:26;45.88;;;26.38;;
28459;SDS011;32528;45.712;9.192;2023-11-21T02:48:27;39.10;;;26.65;;
28459;SDS011;32528;45.712;9.192;2023-11-21T02:50:27;41.55;;;28.23;;
28459;SDS011;32528;45.712;9.192;2023-11-21T02:52:30;35.55;;;25.75;;
28459;SDS011;32528;45.712;9.192;2023-11-21T02:54:33;36.67;;;26.23;;
28459;SDS011;32528;45.712;9.192;2023-11-21T02:56:36;40.30;;;26.13;;
28459;SDS011;32528;45.712;9.192;2023-11-21T02:58:37;53.25;;;27.77;;
28459;SDS011;32528;45.712;9.192;2023-11-21T03:00:41;40.38;;;27.42;;
28459;SDS011;32528;45.712;9.192;2023-11-21T03:02:42;37.90;;;25.17;;
28459;SDS011;32528;45.712;9.192;2023-11-21T03:04:44;61.13;;;27.98;;
28459;SDS011;32528;45.712;9.192;2023-11-21T03:06:45;49.97;;;27.20;;
28459;SDS011;32528;45.712;9.192;2023-11-21T03:08:45;44.67;;;26.23;;
28459;SDS011;32528;45.712;9.192;2023-11-21T03:10:47;48.47;;;27.23;;
28459;SDS011;32528;45.712;9.192;2023-11-21T03:12:47;51.75;;;28.10;;
28459;SDS011;32528;45.712;9.192;2023-11-21T03:14:48;55.60;;;26.35;;
28459;SDS011;32528;45.712;9.192;2023-11-21T03:16:49;36.25;;;26.15;;
28459;SDS011;32528;45.712;9.192;2023-11-21T03:18:50;51.58;;;26.35;;
28459;SDS011;32528;45.712;9.192;2023-11-21T03:20:52;40.85;;;27.55;;
28459;SDS011;32528;45.712;9.192;2023-11-21T03:22:53;41.65;;;26.90;;
28459;SDS011;32528;45.712;9.192;2023-11-21T03:24:54;42.45;;;26.92;;
28459;SDS011;32528;45.712;9.192;2023-11-21T03:26:55;36.25;;;23.42;;
28459;SDS011;32528;45.712;9.192;2023-11-21T03:28:56;47.65;;;26.83;;
28459;SDS011;32528;45.712;9.192;2023-11-21T03:30:57;50.50;;;26.13;;
28459;SDS011;32528;45.712;9.192;2023-11-21T03:32:58;38.08;;;25.90;;
28459;SDS011;32528;45.712;9.192;2023-11-21T03:34:59;38.90;;;26.75;;
28459;SDS011;32528;45.712;9.192;2023-11-21T03:37:00;45.85;;;25.48;;
28459;SDS011;32528;45.712;9.192;2023-11-21T03:39:00;46.72;;;29.27;;
28459;SDS011;32528;45.712;9.192;2023-11-21T03:41:01;48.97;;;28.42;;
28459;SDS011;32528;45.712;9.192;2023-11-21T03:43:02;40.42;;;28.55;;
28459;SDS011;32528;45.712;9.192;2023-11-21T03:45:04;43.53;;;28.42;;
28459;SDS011;32528;45.712;9.192;2023-11-21T03:47:05;51.58;;;27.73;;
28459;SDS011;32528;45.712;9.192;2023-11-21T03:49:07;37.55;;;27.20;;
28459;SDS011;32528;45.712;9.192;2023-11-21T03:51:08;49.72;;;27.73;;
28459;SDS011;32528;45.712;9.192;2023-11-21T03:53:09;53.17;;;27.02;;
28459;SDS011;32528;45.712;9.192;2023-11-21T03:55:10;42.65;;;26.90;;
28459;SDS011;32528;45.712;9.192;2023-11-21T03:57:12;41.08;;;27.35;;
28459;SDS011;32528;45.712;9.192;2023-11-21T03:59:13;42.35;;;27.00;;
28459;SDS011;32528;45.712;9.192;2023-11-21T04:01:23;46.22;;;24.98;;
28459;SDS011;32528;45.712;9.192;2023-11-21T04:05:25;56.58;;;28.02;;
28459;SDS011;32528;45.712;9.192;2023-11-21T04:07:25;43.75;;;25.95;;
28459;SDS011;32528;45.712;9.192;2023-11-21T04:09:27;43.55;;;27.33;;
28459;SDS011;32528;45.712;9.192;2023-11-21T04:11:28;46.20;;;27.13;;
28459;SDS011;32528;45.712;9.192;2023-11-21T04:13:30;44.88;;;26.73;;
28459;SDS011;32528;45.712;9.192;2023-11-21T04:15:30;50.80;;;27.73;;
28459;SDS011;32528;45.712;9.192;2023-11-21T04:17:31;50.35;;;27.65;;
28459;SDS011;32528;45.712;9.192;2023-11-21T04:19:32;40.58;;;26.63;;
28459;SDS011;32528;45.712;9.192;2023-11-21T04:21:33;41.25;;;26.77;;
28459;SDS011;32528;45.712;9.192;2023-11-21T04:23:35;41.70;;;27.52;;
28459;SDS011;32528;45.712;9.192;2023-11-21T04:25:36;40.00;;;27.02;;
28459;SDS011;32528;45.712;9.192;2023-11-21T04:27:37;43.65;;;26.48;;
28459;SDS011;32528;45.712;9.192;2023-11-21T04:29:39;46.50;;;27.33;;
28459;SDS011;32528;45.712;9.192;2023-11-21T04:31:41;44.60;;;26.02;;
28459;SDS011;32528;45.712;9.192;2023-11-21T04:33:43;40.83;;;24.35;;
28459;SDS011;32528;45.712;9.192;2023-11-21T04:35:45;37.55;;;25.65;;
28459;SDS011;32528;45.712;9.192;2023-11-21T04:37:46;47.17;;;26.35;;
28459;SDS011;32528;45.712;9.192;2023-11-21T04:39:47;54.97;;;28.05;;
28459;SDS011;32528;45.712;9.192;2023-11-21T04:41:48;41.75;;;25.65;;
28459;SDS011;32528;45.712;9.192;2023-11-21T04:43:49;44.65;;;27.80;;
28459;SDS011;32528;45.712;9.192;2023-11-21T04:45:49;46.38;;;28.02;;
28459;SDS011;32528;45.712;9.192;2023-11-21T04:47:50;41.00;;;26.92;;
28459;SDS011;32528;45.712;9.192;2023-11-21T04:49:52;41.53;;;27.45;;
28459;SDS011;32528;45.712;9.192;2023-11-21T04:51:53;52.95;;;26.90;;
28459;SDS011;32528;45.712;9.192;2023-11-21T04:53:54;48.92;;;28.50;;
28459;SDS011;32528;45.712;9.192;2023-11-21T04:55:55;44.65;;;27.52;;
28459;SDS011;32528;45.712;9.192;2023-11-21T04:57:55;42.65;;;28.17;;
28459;SDS011;32528;45.712;9.192;2023-11-21T04:59:56;48.92;;;27.33;;
28459;SDS011;32528;45.712;9.192;2023-11-21T05:01:57;52.40;;;30.05;;
28459;SDS011;32528;45.712;9.192;2023-11-21T05:03:57;45.05;;;27.10;;
28459;SDS011;32528;45.712;9.192;2023-11-21T05:05:59;42.17;;;27.63;;
28459;SDS011;32528;45.712;9.192;2023-11-21T05:08:00;46.15;;;29.15;;
28459;SDS011;32528;45.712;9.192;2023-11-21T05:10:01;48.45;;;28.40;;
28459;SDS011;32528;45.712;9.192;2023-11-21T05:12:03;45.20;;;29.35;;
28459;SDS011;32528;45.712;9.192;2023-11-21T05:14:04;44.35;;;27.88;;
28459;SDS011;32528;45.712;9.192;2023-11-21T05:16:05;53.35;;;28.05;;
28459;SDS011;32528;45.712;9.192;2023-11-21T05:18:07;41.25;;;27.25;;
28459;SDS011;32528;45.712;9.192;2023-11-21T05:20:08;53.90;;;28.40;;
28459;SDS011;32528;45.712;9.192;2023-11-21T05:22:11;44.35;;;28.02;;
28459;SDS011;32528;45.712;9.192;2023-11-21T05:24:12;42.92;;;28.00;;
28459;SDS011;32528;45.712;9.192;2023-11-21T05:26:13;50.50;;;28.27;;
28459;SDS011;32528;45.712;9.192;2023-11-21T05:28:13;43.28;;;27.75;;
28459;SDS011;32528;45.712;9.192;2023-11-21T05:30:14;35.90;;;25.45;;
28459;SDS011;32528;45.712;9.192;2023-11-21T05:32:15;48.30;;;26.48;;
28459;SDS011;32528;45.712;9.192;2023-11-21T05:34:17;43.15;;;29.15;;
28459;SDS011;32528;45.712;9.192;2023-11-21T05:36:18;43.72;;;29.60;;
28459;SDS011;32528;45.712;9.192;2023-11-21T05:38:18;45.40;;;27.85;;
28459;SDS011;32528;45.712;9.192;2023-11-21T05:40:21;48.13;;;28.38;;
28459;SDS011;32528;45.712;9.192;2023-11-21T05:42:23;44.28;;;30.70;;
28459;SDS011;32528;45.712;9.192;2023-11-21T05:44:23;43.00;;;28.52;;
28459;SDS011;32528;45.712;9.192;2023-11-21T05:46:25;41.72;;;27.27;;
28459;SDS011;32528;45.712;9.192;2023-11-21T05:48:25;49.83;;;28.33;;
28459;SDS011;32528;45.712;9.192;2023-11-21T05:50:26;43.88;;;28.67;;
28459;SDS011;32528;45.712;9.192;2023-11-21T05:52:28;42.80;;;27.10;;
28459;SDS011;32528;45.712;9.192;2023-11-21T05:54:29;46.75;;;29.23;;
28459;SDS011;32528;45.712;9.192;2023-11-21T05:56:29;48.47;;;28.50;;
28459;SDS011;32528;45.712;9.192;2023-11-21T05:58:30;44.33;;;27.73;;
28459;SDS011;32528;45.712;9.192;2023-11-21T06:00:31;46.35;;;26.70;;
28459;SDS011;32528;45.712;9.192;2023-11-21T06:02:32;51.38;;;29.33;;
28459;SDS011;32528;45.712;9.192;2023-11-21T06:04:33;44.67;;;27.67;;
28459;SDS011;32528;45.712;9.192;2023-11-21T06:06:34;40.15;;;28.27;;
28459;SDS011;32528;45.712;9.192;2023-11-21T06:08:34;48.58;;;28.85;;
28459;SDS011;32528;45.712;9.192;2023-11-21T06:10:35;53.45;;;28.52;;
28459;SDS011;32528;45.712;9.192;2023-11-21T06:12:36;49.17;;;29.23;;
28459;SDS011;32528;45.712;9.192;2023-11-21T06:14:37;54.83;;;30.35;;
28459;SDS011;32528;45.712;9.192;2023-11-21T06:16:38;42.85;;;30.17;;
28459;SDS011;32528;45.712;9.192;2023-11-21T06:18:40;48.88;;;30.42;;
28459;SDS011;32528;45.712;9.192;2023-11-21T06:20:41;55.15;;;32.08;;
28459;SDS011;32528;45.712;9.192;2023-11-21T06:22:42;42.90;;;28.83;;
28459;SDS011;32528;45.712;9.192;2023-11-21T06:24:43;47.42;;;28.35;;
28459;SDS011;32528;45.712;9.192;2023-11-21T06:26:43;45.17;;;27.52;;
28459;SDS011;32528;45.712;9.192;2023-11-21T06:28:44;46.88;;;28.38;;
28459;SDS011;32528;45.712;9.192;2023-11-21T06:30:45;47.10;;;29.90;;
28459;SDS011;32528;45.712;9.192;2023-11-21T06:32:46;50.17;;;29.83;;
28459;SDS011;32528;45.712;9.192;2023-11-21T06:34:46;47.28;;;28.45;;
28459;SDS011;32528;45.712;9.192;2023-11-21T06:36:47;43.92;;;27.30;;
28459;SDS011;32528;45.712;9.192;2023-11-21T06:38:48;51.78;;;30.52;;
28459;SDS011;32528;45.712;9.192;2023-11-21T06:40:49;51.88;;;29.90;;
28459;SDS011;32528;45.712;9.192;2023-11-21T06:42:50;54.38;;;32.50;;
28459;SDS011;32528;45.712;9.192;2023-11-21T06:44:51;48.60;;;29.88;;
28459;SDS011;32528;45.712;9.192;2023-11-21T06:46:51;50.22;;;31.70;;
28459;SDS011;32528;45.712;9.192;2023-11-21T06:48:52;59.08;;;34.00;;
28459;SDS011;32528;45.712;9.192;2023-11-21T06:50:53;65.60;;;36.30;;
28459;SDS011;32528;45.712;9.192;2023-11-21T06:52:54;71.72;;;36.30;;
28459;SDS011;32528;45.712;9.192;2023-11-21T06:54:54;64.65;;;38.55;;
28459;SDS011;32528;45.712;9.192;2023-11-21T06:56:55;75.90;;;42.95;;
28459;SDS011;32528;45.712;9.192;2023-11-21T06:58:56;113.65;;;53.38;;
28459;SDS011;32528;45.712;9.192;2023-11-21T07:00:57;107.85;;;61.92;;
28459;SDS011;32528;45.712;9.192;2023-11-21T07:02:58;115.57;;;60.78;;
28459;SDS011;32528;45.712;9.192;2023-11-21T07:04:59;104.40;;;53.92;;
28459;SDS011;32528;45.712;9.192;2023-11-21T07:07:00;84.07;;;46.15;;
28459;SDS011;32528;45.712;9.192;2023-11-21T07:09:00;78.07;;;44.35;;
28459;SDS011;32528;45.712;9.192;2023-11-21T07:11:03;75.68;;;39.92;;
28459;SDS011;32528;45.712;9.192;2023-11-21T07:13:04;55.40;;;34.72;;
28459;SDS011;32528;45.712;9.192;2023-11-21T07:15:05;55.28;;;33.45;;
28459;SDS011;32528;45.712;9.192;2023-11-21T07:17:09;50.58;;;30.85;;
28459;SDS011;32528;45.712;9.192;2023-11-21T07:19:09;61.78;;;32.72;;
28459;SDS011;32528;45.712;9.192;2023-11-21T07:21:12;49.75;;;30.92;;
28459;SDS011;32528;45.712;9.192;2023-11-21T07:23:13;46.13;;;28.20;;
28459;SDS011;32528;45.712;9.192;2023-11-21T07:25:15;50.40;;;28.27;;
28459;SDS011;32528;45.712;9.192;2023-11-21T07:27:16;49.75;;;27.08;;
28459;SDS011;32528;45.712;9.192;2023-11-21T07:29:17;41.22;;;25.90;;
28459;SDS011;32528;45.712;9.192;2023-11-21T07:31:18;36.13;;;24.35;;
28459;SDS011;32528;45.712;9.192;2023-11-21T07:33:19;44.28;;;26.85;;
28459;SDS011;32528;45.712;9.192;2023-11-21T07:35:21;41.55;;;25.77;;
28459;SDS011;32528;45.712;9.192;2023-11-21T07:37:22;41.90;;;25.88;;
28459;SDS011;32528;45.712;9.192;2023-11-21T07:39:23;48.15;;;29.65;;
28459;SDS011;32528;45.712;9.192;2023-11-21T07:41:24;47.83;;;30.63;;
28459;SDS011;32528;45.712;9.192;2023-11-21T07:43:24;46.92;;;28.17;;
28459;SDS011;32528;45.712;9.192;2023-11-21T07:45:26;149.40;;;71.60;;
28459;SDS011;32528;45.712;9.192;2023-11-21T07:47:27;131.63;;;66.05;;
28459;SDS011;32528;45.712;9.192;2023-11-21T07:49:28;99.72;;;48.83;;
28459;SDS011;32528;45.712;9.192;2023-11-21T07:51:29;80.28;;;43.58;;
28459;SDS011;32528;45.712;9.192;2023-11-21T07:53:29;70.30;;;38.47;;
28459;SDS011;32528;45.712;9.192;2023-11-21T07:55:30;49.90;;;29.58;;
28459;SDS011;32528;45.712;9.192;2023-11-21T07:57:32;41.97;;;28.25;;
28459;SDS011;32528;45.712;9.192;2023-11-21T07:59:33;46.90;;;25.83;;
28459;SDS011;32528;45.712;9.192;2023-11-21T08:01:33;40.47;;;25.55;;
28459;SDS011;32528;45.712;9.192;2023-11-21T08:03:34;37.30;;;25.08;;
28459;SDS011;32528;45.712;9.192;2023-11-21T08:05:35;36.67;;;24.65;;
28459;SDS011;32528;45.712;9.192;2023-11-21T08:07:36;37.13;;;24.67;;
28459;SDS011;32528;45.712;9.192;2023-11-21T08:09:36;39.97;;;25.65;;
28459;SDS011;32528;45.712;9.192;2023-11-21T08:11:38;35.13;;;25.50;;
28459;SDS011;32528;45.712;9.192;2023-11-21T08:13:39;41.95;;;26.02;;
28459;SDS011;32528;45.712;9.192;2023-11-21T08:15:39;43.20;;;25.45;;
28459;SDS011;32528;45.712;9.192;2023-11-21T08:17:40;38.35;;;24.33;;
28459;SDS011;32528;45.712;9.192;2023-11-21T08:19:41;41.72;;;26.42;;
28459;SDS011;32528;45.712;9.192;2023-11-21T08:21:42;36.55;;;25.27;;
28459;SDS011;32528;45.712;9.192;2023-11-21T08:23:42;37.00;;;24.95;;
28459;SDS011;32528;45.712;9.192;2023-11-21T08:25:43;40.15;;;26.88;;
28459;SDS011;32528;45.712;9.192;2023-11-21T08:27:44;51.35;;;24.80;;
28459;SDS011;32528;45.712;9.192;2023-11-21T08:29:45;40.22;;;25.40;;
28459;SDS011;32528;45.712;9.192;2023-11-21T08:31:46;41.78;;;26.15;;
28459;SDS011;32528;45.712;9.192;2023-11-21T08:33:47;36.90;;;25.23;;
28459;SDS011;32528;45.712;9.192;2023-11-21T08:35:48;40.67;;;25.48;;
28459;SDS011;32528;45.712;9.192;2023-11-21T08:37:50;49.05;;;27.65;;
28459;SDS011;32528;45.712;9.192;2023-11-21T08:39:52;43.50;;;25.52;;
28459;SDS011;32528;45.712;9.192;2023-11-21T08:41:54;36.67;;;25.77;;
28459;SDS011;32528;45.712;9.192;2023-11-21T08:43:55;33.88;;;23.90;;
28459;SDS011;32528;45.712;9.192;2023-11-21T08:45:56;36.90;;;26.98;;
28459;SDS011;32528;45.712;9.192;2023-11-21T08:47:56;42.95;;;25.58;;
28459;SDS011;32528;45.712;9.192;2023-11-21T08:49:57;43.30;;;27.67;;
28459;SDS011;32528;45.712;9.192;2023-11-21T08:51:58;50.60;;;28.52;;
28459;SDS011;32528;45.712;9.192;2023-11-21T08:53:59;43.20;;;26.48;;
28459;SDS011;32528;45.712;9.192;2023-11-21T08:56:04;55.88;;;26.75;;
28459;SDS011;32528;45.712;9.192;2023-11-21T08:58:06;40.20;;;27.88;;
28459;SDS011;32528;45.712;9.192;2023-11-21T09:00:07;48.75;;;25.65;;
28459;SDS011;32528;45.712;9.192;2023-11-21T09:02:11;42.97;;;24.63;;
28459;SDS011;32528;45.712;9.192;2023-11-21T09:04:12;39.85;;;24.92;;
28459;SDS011;32528;45.712;9.192;2023-11-21T09:06:13;39.63;;;22.80;;
28459;SDS011;32528;45.712;9.192;2023-11-21T09:08:14;45.92;;;29.48;;
28459;SDS011;32528;45.712;9.192;2023-11-21T09:10:15;41.22;;;25.67;;
28459;SDS011;32528;45.712;9.192;2023-11-21T09:12:15;51.90;;;26.33;;
28459;SDS011;32528;45.712;9.192;2023-11-21T09:14:17;40.90;;;24.70;;
28459;SDS011;32528;45.712;9.192;2023-11-21T09:16:18;38.38;;;24.10;;
28459;SDS011;32528;45.712;9.192;2023-11-21T09:18:18;44.33;;;24.83;;
28459;SDS011;32528;45.712;9.192;2023-11-21T09:20:19;39.42;;;23.95;;
28459;SDS011;32528;45.712;9.192;2023-11-21T09:22:23;37.97;;;24.55;;
28459;SDS011;32528;45.712;9.192;2023-11-21T09:24:25;42.58;;;25.08;;
28459;SDS011;32528;45.712;9.192;2023-11-21T09:26:26;40.00;;;25.17;;
28459;SDS011;32528;45.712;9.192;2023-11-21T09:28:26;40.35;;;25.45;;
28459;SDS011;32528;45.712;9.192;2023-11-21T09:30:28;37.05;;;24.42;;
28459;SDS011;32528;45.712;9.192;2023-11-21T09:32:29;41.85;;;25.88;;
28459;SDS011;32528;45.712;9.192;2023-11-21T09:34:30;41.08;;;25.13;;
28459;SDS011;32528;45.712;9.192;2023-11-21T09:36:32;39.42;;;23.65;;
28459;SDS011;32528;45.712;9.192;2023-11-21T09:38:33;40.33;;;24.42;;
28459;SDS011;32528;45.712;9.192;2023-11-21T09:40:35;38.60;;;25.08;;
28459;SDS011;32528;45.712;9.192;2023-11-21T09:42:40;45.17;;;24.77;;
28459;SDS011;32528;45.712;9.192;2023-11-21T09:47:04;37.20;;;24.30;;
28459;SDS011;32528;45.712;9.192;2023-11-21T09:49:10;42.97;;;24.17;;
28459;SDS011;32528;45.712;9.192;2023-11-21T09:51:13;36.88;;;24.63;;
28459;SDS011;32528;45.712;9.192;2023-11-21T09:55:21;38.28;;;23.88;;
28459;SDS011;32528;45.712;9.192;2023-11-21T09:57:24;44.22;;;24.40;;
28459;SDS011;32528;45.712;9.192;2023-11-21T09:59:25;30.48;;;21.98;;
28459;SDS011;32528;45.712;9.192;2023-11-21T10:01:31;36.38;;;24.23;;
28459;SDS011;32528;45.712;9.192;2023-11-21T10:03:35;35.70;;;23.65;;
28459;SDS011;32528;45.712;9.192;2023-11-21T10:05:39;46.65;;;24.42;;
28459;SDS011;32528;45.712;9.192;2023-11-21T10:07:41;38.55;;;23.77;;
28459;SDS011;32528;45.712;9.192;2023-11-21T10:09:44;44.85;;;26.05;;
28459;SDS011;32528;45.712;9.192;2023-11-21T10:11:47;37.28;;;24.38;;
28459;SDS011;32528;45.712;9.192;2023-11-21T10:13:49;40.58;;;25.05;;
28459;SDS011;32528;45.712;9.192;2023-11-21T10:15:53;34.10;;;22.67;;
28459;SDS011;32528;45.712;9.192;2023-11-21T10:17:54;36.10;;;24.08;;
28459;SDS011;32528;45.712;9.192;2023-11-21T10:19:55;32.83;;;21.92;;
28459;SDS011;32528;45.712;9.192;2023-11-21T10:21:57;33.67;;;21.55;;
28459;SDS011;32528;45.712;9.192;2023-11-21T10:24:00;35.30;;;22.55;;
28459;SDS011;32528;45.712;9.192;2023-11-21T10:26:01;34.53;;;22.70;;
28459;SDS011;32528;45.712;9.192;2023-11-21T10:28:04;38.13;;;23.77;;
28459;SDS011;32528;45.712;9.192;2023-11-21T10:30:07;28.73;;;20.80;;
28459;SDS011;32528;45.712;9.192;2023-11-21T10:32:12;36.90;;;22.52;;
28459;SDS011;32528;45.712;9.192;2023-11-21T10:34:16;34.83;;;22.20;;
28459;SDS011;32528;45.712;9.192;2023-11-21T10:36:26;39.72;;;22.38;;
28459;SDS011;32528;45.712;9.192;2023-11-21T10:38:27;29.65;;;19.75;;
28459;SDS011;32528;45.712;9.192;2023-11-21T10:40:30;40.88;;;23.40;;
28459;SDS011;32528;45.712;9.192;2023-11-21T10:42:31;39.60;;;23.17;;
28459;SDS011;32528;45.712;9.192;2023-11-21T10:44:33;47.58;;;23.77;;
28459;SDS011;32528;45.712;9.192;2023-11-21T10:46:34;32.13;;;19.83;;
28459;SDS011;32528;45.712;9.192;2023-11-21T10:48:35;32.47;;;21.38;;
28459;SDS011;32528;45.712;9.192;2023-11-21T10:50:36;30.77;;;20.30;;
28459;SDS011;32528;45.712;9.192;2023-11-21T10:52:39;42.30;;;21.83;;
28459;SDS011;32528;45.712;9.192;2023-11-21T10:54:43;36.58;;;20.83;;
28459;SDS011;32528;45.712;9.192;2023-11-21T10:56:44;30.10;;;19.52;;
28459;SDS011;32528;45.712;9.192;2023-11-21T10:58:46;32.92;;;21.25;;
28459;SDS011;32528;45.712;9.192;2023-11-21T11:00:48;31.45;;;19.42;;
28459;SDS011;32528;45.712;9.192;2023-11-21T11:02:51;30.85;;;20.80;;
28459;SDS011;32528;45.712;9.192;2023-11-21T11:04:54;40.92;;;20.60;;
28459;SDS011;32528;45.712;9.192;2023-11-21T11:07:01;36.13;;;22.15;;
28459;SDS011;32528;45.712;9.192;2023-11-21T11:09:03;36.97;;;19.17;;
28459;SDS011;32528;45.712;9.192;2023-11-21T11:11:05;30.65;;;19.90;;
28459;SDS011;32528;45.712;9.192;2023-11-21T11:13:07;35.60;;;22.98;;
28459;SDS011;32528;45.712;9.192;2023-11-21T11:15:08;32.95;;;19.95;;
28459;SDS011;32528;45.712;9.192;2023-11-21T11:17:11;32.47;;;21.48;;
28459;SDS011;32528;45.712;9.192;2023-11-21T11:19:13;33.78;;;21.23;;
28459;SDS011;32528;45.712;9.192;2023-11-21T11:28:14;33.55;;;19.15;;
28459;SDS011;32528;45.712;9.192;2023-11-21T11:33:04;36.72;;;18.38;;
28459;SDS011;32528;45.712;9.192;2023-11-21T11:35:28;32.38;;;19.15;;
28459;SDS011;32528;45.712;9.192;2023-11-21T11:37:38;29.92;;;19.60;;
28459;SDS011;32528;45.712;9.192;2023-11-21T11:39:40;27.13;;;18.08;;
28459;SDS011;32528;45.712;9.192;2023-11-21T11:41:43;33.97;;;18.88;;
28459;SDS011;32528;45.712;9.192;2023-11-21T11:43:44;31.63;;;19.00;;
28459;SDS011;32528;45.712;9.192;2023-11-21T11:45:45;32.78;;;21.27;;
28459;SDS011;32528;45.712;9.192;2023-11-21T11:47:56;30.77;;;19.80;;
28459;SDS011;32528;45.712;9.192;2023-11-21T11:49:58;39.10;;;20.58;;
28459;SDS011;32528;45.712;9.192;2023-11-21T11:54:35;30.13;;;19.05;;
28459;SDS011;32528;45.712;9.192;2023-11-21T11:56:36;33.30;;;20.58;;
28459;SDS011;32528;45.712;9.192;2023-11-21T11:58:39;33.38;;;20.17;;
28459;SDS011;32528;45.712;9.192;2023-11-21T12:00:42;35.53;;;22.98;;
28459;SDS011;32528;45.712;9.192;2023-11-21T12:02:46;33.05;;;21.15;;
28459;SDS011;32528;45.712;9.192;2023-11-21T12:04:47;43.35;;;24.25;;
28459;SDS011;32528;45.712;9.192;2023-11-21T12:06:50;37.42;;;23.77;;
28459;SDS011;32528;45.712;9.192;2023-11-21T12:08:58;32.67;;;19.23;;